createdAt,value
2019-05-13T00:03:48.558Z,2.25
2019-05-13T00:08:54.227Z,4.53
2019-05-13T00:13:57.255Z,1.60
2019-05-13T00:19:00.724Z,5.60
2019-05-13T00:24:04.331Z,4.30
2019-05-13T00:29:07.817Z,4.40
2019-05-13T00:34:11.284Z,2.75
2019-05-13T00:39:15.392Z,4.58
2019-05-13T00:44:19.037Z,6.72
2019-05-13T00:49:23.875Z,3.35
2019-05-13T00:54:28.683Z,8.00
2019-05-13T00:59:34.891Z,3.95
2019-05-13T01:04:38.330Z,3.77
2019-05-13T01:09:41.684Z,6.08
2019-05-13T01:14:45.172Z,7.30
2019-05-13T01:19:48.890Z,6.30
2019-05-13T01:24:54.195Z,8.98
2019-05-13T01:29:58.471Z,7.05
2019-05-13T01:35:04.443Z,6.47
2019-05-13T01:40:08.186Z,7.28
2019-05-13T01:45:13.692Z,10.03
2019-05-13T01:50:17.526Z,10.03
2019-05-13T01:55:21.325Z,4.00
2019-05-13T02:00:26.150Z,12.45
2019-05-13T02:05:29.890Z,7.62
2019-05-13T02:10:53.916Z,6.62
2019-05-13T02:15:56.822Z,8.48
2019-05-13T02:21:00.309Z,10.43
2019-05-13T02:26:04.722Z,8.08
2019-05-13T02:31:08.352Z,10.25
2019-05-13T02:36:13.487Z,9.53
2019-05-13T02:41:17.195Z,13.55
2019-05-13T02:46:22.598Z,8.98
2019-05-13T02:51:25.905Z,6.72
2019-05-13T02:56:29.460Z,11.83
2019-05-13T03:01:33.390Z,7.87
2019-05-13T03:06:37.948Z,10.30
2019-05-13T03:11:42.329Z,10.65
2019-05-13T03:16:58.114Z,8.05
2019-05-13T03:22:02.972Z,7.85
2019-05-13T03:27:07.240Z,8.98
2019-05-13T03:32:16.612Z,12.82
2019-05-13T03:37:16.984Z,8.23
2019-05-13T03:42:24.491Z,9.70
2019-05-13T03:47:32.859Z,10.68
2019-05-13T03:52:36.429Z,6.10
2019-05-13T03:57:42.657Z,8.60
2019-05-13T04:02:46.383Z,15.45
2019-05-13T04:07:52.332Z,11.48
2019-05-13T04:12:55.501Z,12.60
2019-05-13T04:18:02.383Z,14.15
2019-05-13T04:23:04.330Z,12.98
2019-05-13T04:28:07.894Z,13.65
2019-05-13T04:33:13.904Z,14.95
2019-05-13T04:38:16.927Z,14.30
2019-05-13T04:43:23.500Z,13.98
2019-05-13T04:48:26.577Z,7.20
2019-05-13T04:53:33.001Z,8.80
2019-05-13T04:58:35.315Z,12.45
2019-05-13T05:03:52.773Z,9.78
2019-05-13T05:10:23.492Z,11.85
2019-05-13T05:15:47.662Z,12.18
2019-05-13T05:21:01.472Z,13.80
2019-05-13T05:26:45.832Z,12.23
2019-05-13T05:32:23.148Z,12.37
2019-05-13T05:38:01.443Z,10.65
2019-05-13T05:43:11.488Z,11.05
2019-05-13T05:48:16.960Z,12.37
2019-05-13T05:53:23.863Z,17.00
2019-05-13T05:58:31.377Z,7.37
2019-05-13T06:03:37.436Z,16.00
2019-05-13T06:13:46.024Z,16.65
2019-05-13T06:18:52.868Z,10.10
2019-05-13T06:23:56.557Z,7.28
2019-05-13T06:29:02.531Z,8.73
2019-05-13T06:34:05.283Z,9.75
2019-05-13T06:39:12.131Z,14.43
2019-05-13T06:44:15.239Z,4.77
2019-05-13T06:49:21.480Z,9.20
2019-05-13T06:54:24.357Z,9.58
2019-05-13T06:59:27.742Z,14.55
2019-05-13T07:04:32.582Z,7.20
2019-05-13T07:09:37.062Z,5.78
2019-05-13T07:14:41.317Z,5.90
2019-05-13T07:19:45.742Z,7.10
2019-05-13T07:24:51.771Z,5.33
2019-05-13T07:29:55.763Z,4.97
2019-05-13T07:35:03.402Z,6.30
2019-05-13T07:40:05.446Z,5.25
2019-05-13T07:45:11.487Z,9.05
2019-05-13T07:50:14.582Z,4.95
2019-05-13T07:55:18.447Z,6.20
2019-05-13T08:00:22.406Z,9.65
2019-05-13T08:05:26.534Z,5.22
2019-05-13T08:10:31.887Z,5.58
2019-05-13T08:15:35.813Z,3.55
2019-05-13T08:20:41.743Z,4.33
2019-05-13T08:25:45.962Z,5.85
2019-05-13T08:30:51.668Z,1.77
2019-05-13T08:35:58.759Z,3.08
2019-05-13T08:41:03.273Z,3.85
2019-05-13T08:46:08.686Z,5.17
2019-05-13T08:51:12.896Z,4.60
2019-05-13T08:56:16.373Z,5.62
2019-05-13T09:01:22.528Z,2.02
2019-05-13T09:06:25.620Z,3.52
2019-05-13T09:11:31.509Z,1.60
2019-05-13T09:16:35.128Z,3.63
2019-05-13T09:21:38.688Z,3.75
2019-05-13T09:26:42.422Z,1.42
2019-05-13T09:31:45.999Z,1.82
2019-05-13T09:36:51.936Z,2.30
2019-05-13T09:41:55.674Z,4.28
2019-05-13T09:47:02.235Z,0.80
2019-05-13T09:52:05.448Z,3.95
2019-05-13T09:57:12.138Z,1.47
2019-05-13T10:02:16.424Z,4.00
2019-05-13T10:07:22.613Z,4.17
2019-05-13T10:12:25.207Z,4.05
2019-05-13T10:17:31.664Z,1.85
2019-05-13T10:22:35.346Z,4.03
2019-05-13T10:27:38.883Z,1.22
2019-05-13T10:32:42.935Z,1.40
2019-05-13T10:37:46.606Z,2.60
2019-05-13T10:42:52.443Z,3.27
2019-05-13T10:47:55.661Z,1.72
2019-05-13T10:53:03.162Z,3.27
2019-05-13T10:58:07.063Z,2.20
2019-05-13T11:03:11.797Z,3.77
2019-05-13T11:08:17.430Z,2.80
2019-05-13T11:13:23.261Z,2.80
2019-05-13T11:18:26.929Z,1.15
2019-05-13T11:23:33.264Z,3.87
2019-05-13T11:28:36.655Z,4.08
2019-05-13T11:33:42.322Z,2.72
2019-05-13T11:38:45.834Z,2.02
2019-05-13T11:44:10.254Z,4.45
2019-05-13T11:48:58.721Z,4.27
2019-05-13T11:54:03.433Z,4.90
2019-05-13T11:59:09.240Z,3.10
2019-05-13T12:04:13.051Z,1.80
2019-05-13T12:09:26.390Z,1.62
2019-05-13T12:14:44.143Z,1.25
2019-05-13T12:19:41.275Z,4.72
2019-05-13T12:24:47.106Z,6.12
2019-05-13T12:29:53.754Z,2.22
2019-05-13T12:34:57.289Z,2.47
2019-05-13T12:40:05.225Z,2.27
2019-05-13T12:45:14.077Z,1.72
2019-05-13T12:50:27.564Z,0.88
2019-05-13T12:55:33.175Z,5.75
2019-05-13T13:00:36.748Z,3.67
2019-05-13T13:05:43.283Z,6.83
2019-05-13T13:10:46.492Z,3.43
2019-05-13T13:15:52.825Z,1.50
2019-05-13T13:21:01.045Z,4.08
2019-05-13T13:26:02.909Z,4.60
2019-05-13T13:31:06.711Z,2.65
2019-05-13T13:36:15.482Z,5.45
2019-05-13T13:41:22.383Z,3.02
2019-05-13T13:46:37.097Z,5.42
2019-05-13T13:51:28.532Z,3.37
2019-05-13T13:56:32.841Z,5.20
2019-05-13T14:01:37.270Z,3.80
2019-05-13T14:11:46.921Z,1.00
2019-05-13T14:16:51.908Z,4.60
2019-05-13T14:21:55.944Z,3.50
2019-05-13T14:26:59.678Z,4.10
2019-05-13T14:32:03.239Z,4.58
2019-05-13T14:37:06.874Z,1.65
2019-05-13T14:42:11.686Z,1.52
2019-05-13T14:47:16.310Z,2.65
2019-05-13T14:52:22.089Z,2.35
2019-05-13T14:57:25.292Z,2.70
2019-05-13T15:02:28.809Z,4.97
2019-05-13T15:07:33.404Z,1.17
2019-05-13T15:12:37.320Z,2.62
2019-05-13T15:17:42.630Z,2.47
2019-05-13T15:22:47.656Z,2.72
2019-05-13T15:27:52.955Z,1.82
2019-05-13T15:32:56.473Z,3.55
2019-05-13T15:38:01.373Z,3.75
2019-05-13T15:43:05.527Z,2.00
2019-05-13T15:48:11.585Z,8.20
2019-05-13T15:53:14.753Z,3.80
2019-05-13T15:58:37.746Z,4.50
2019-05-13T16:03:26.886Z,4.78
2019-05-13T16:08:43.474Z,2.92
2019-05-13T16:13:47.085Z,2.75
2019-05-13T16:18:51.567Z,4.53
2019-05-13T16:23:55.487Z,3.30
2019-05-13T16:29:01.813Z,3.37
2019-05-13T16:34:04.343Z,4.80
2019-05-13T16:39:07.997Z,2.98
2019-05-13T16:44:12.221Z,3.67
2019-05-13T16:49:17.141Z,6.42
2019-05-13T16:54:22.105Z,3.75
2019-05-13T16:59:26.287Z,5.47
2019-05-13T17:04:31.940Z,4.28
2019-05-13T17:09:35.091Z,4.12
2019-05-13T17:14:38.649Z,6.15
2019-05-13T17:19:42.351Z,12.15
2019-05-13T17:24:47.058Z,8.03
2019-05-13T17:29:51.599Z,5.80
2019-05-13T17:34:55.521Z,7.65
2019-05-13T17:40:01.127Z,9.88
2019-05-13T17:45:04.836Z,6.65
2019-05-13T17:50:08.533Z,5.33
2019-05-13T17:55:15.342Z,11.12
2019-05-13T18:00:18.928Z,8.00
2019-05-13T18:05:22.644Z,8.08
2019-05-13T18:10:26.962Z,9.55
2019-05-13T18:15:31.358Z,9.38
2019-05-13T18:20:35.233Z,11.43
2019-05-13T18:25:38.674Z,12.47
2019-05-13T18:30:42.214Z,7.58
2019-05-13T18:35:45.953Z,6.92
2019-05-13T18:41:02.036Z,6.42
2019-05-13T18:46:05.935Z,9.33
2019-05-13T18:51:11.976Z,10.20
2019-05-13T18:56:15.709Z,8.45
2019-05-13T19:01:21.427Z,9.20
2019-05-13T19:06:24.470Z,9.38
2019-05-13T19:11:28.993Z,15.35
2019-05-13T19:16:32.339Z,13.03
2019-05-13T19:21:35.821Z,13.28
2019-05-13T19:26:41.503Z,20.43
2019-05-13T19:31:44.894Z,16.15
2019-05-13T19:36:48.801Z,13.20
2019-05-13T19:41:52.213Z,13.98
2019-05-13T19:46:55.665Z,16.65
2019-05-13T19:52:01.966Z,12.55
2019-05-13T19:57:05.378Z,12.58
2019-05-13T20:02:08.765Z,14.87
2019-05-13T20:07:12.255Z,11.15
2019-05-13T20:12:15.979Z,10.38
2019-05-13T20:17:19.383Z,16.60
2019-05-13T20:22:23.031Z,12.88
2019-05-13T20:27:26.799Z,19.52
2019-05-13T20:32:30.816Z,13.20
2019-05-13T20:37:35.288Z,14.33
2019-05-13T20:42:41.265Z,16.37
2019-05-13T20:47:44.828Z,18.32
2019-05-13T20:52:48.289Z,20.60
2019-05-13T20:57:53.026Z,14.93
2019-05-13T21:02:57.145Z,17.45
2019-05-13T21:08:01.742Z,19.27
2019-05-13T21:13:05.769Z,17.67
2019-05-13T21:18:11.367Z,18.50
2019-05-13T21:23:14.777Z,17.45
2019-05-13T21:28:18.376Z,17.12
2019-05-13T21:33:22.307Z,24.23
2019-05-13T21:38:25.878Z,21.93
2019-05-13T21:43:29.539Z,17.15
2019-05-13T21:48:33.351Z,15.75
2019-05-13T21:53:37.756Z,13.58
2019-05-13T21:58:41.587Z,18.05
2019-05-13T22:03:45.659Z,16.42
2019-05-13T22:08:51.651Z,16.82
2019-05-13T22:13:54.726Z,15.53
2019-05-13T22:18:58.199Z,20.20
2019-05-13T22:24:02.223Z,13.55
2019-05-13T22:29:05.793Z,14.78
2019-05-13T22:34:11.917Z,10.93
2019-05-13T22:39:14.796Z,15.63
2019-05-13T22:44:21.666Z,14.80
2019-05-13T22:49:24.855Z,9.13
2019-05-13T22:54:28.295Z,15.05
2019-05-13T22:59:32.327Z,12.37
2019-05-13T23:04:35.878Z,9.45
2019-05-13T23:09:41.572Z,10.98
2019-05-13T23:14:44.773Z,10.55
2019-05-13T23:19:48.205Z,9.60
2019-05-13T23:24:51.909Z,8.90
2019-05-13T23:29:55.725Z,10.60
2019-05-13T23:35:01.790Z,11.38
2019-05-13T23:40:05.785Z,11.90
2019-05-13T23:45:11.435Z,7.85
2019-05-13T23:50:15.167Z,9.10
2019-05-13T23:55:18.688Z,8.10
